This is the latest recevied weather packets stored in our database for station/object DL3GCR-10. If no packets are shown the sender has not sent any weather packets the latest 10 day(s).
| Time | Temp. | Humidity | Pressure | Rain* | Wind** | Luminosity | Snow |
|---|---|---|---|---|---|---|---|
| 1777111614 | 19.44° C | 32% | 1020.4 hPa | - | - | - | - |
| 1777110714 | 18.89° C | 33% | 1020.6 hPa | - | - | - | - |
| 1777109814 | 18.33° C | 35% | 1020.6 hPa | - | - | - | - |
| 1777108914 | 16.67° C | 38% | 1020.7 hPa | - | - | - | - |
| 1777108013 | 16.11° C | 40% | 1020.8 hPa | - | - | - | - |
| 1777107113 | 15° C | 43% | 1020.8 hPa | - | - | - | - |
| 1777106213 | 14.44° C | 44% | 1020.9 hPa | - | - | - | - |
| 1777105313 | 13.89° C | 47% | 1020.9 hPa | - | - | - | - |
| 1777104413 | 12.78° C | 49% | 1020.9 hPa | - | - | - | - |
| 1777103513 | 12.78° C | 50% | 1020.8 hPa | - | - | - | - |
| 1777102612 | 12.22° C | 51% | 1020.8 hPa | - | - | - | - |
| 1777101712 | 11.11° C | 53% | 1020.8 hPa | - | - | - | - |
| 1777100812 | 10° C | 53% | 1020.8 hPa | - | - | - | - |
| 1777099912 | 9.44° C | 53% | 1020.7 hPa | - | - | - | - |
| 1777099011 | 8.89° C | 54% | 1020.7 hPa | - | - | - | - |
| 1777098111 | 8.33° C | 56% | 1020.8 hPa | - | - | - | - |
| 1777097211 | 7.78° C | 58% | 1020.8 hPa | - | - | - | - |
| 1777096311 | 7.22° C | 63% | 1020.9 hPa | - | - | - | - |
| 1777095411 | 6.67° C | 63% | 1020.8 hPa | - | - | - | - |
| 1777094511 | 5.56° C | 64% | 1020.6 hPa | - | - | - | - |
| 1777093611 | 5° C | 64% | 1020.6 hPa | - | - | - | - |
| 1777092710 | 5° C | 64% | 1020.6 hPa | - | - | - | - |
| 1777091810 | 5° C | 63% | 1020.4 hPa | - | - | - | - |
| 1777090915 | 5.56° C | 61% | 1020.2 hPa | - | - | - | - |
| 1777090015 | 5.56° C | 61% | 1020.3 hPa | - | - | - | - |
* Rain since midnight (hover to see other rain measurements)
** Current wind speed in m/s (hover to see current wind gust speed)